Aérodrome :
LOGIN :

S'inscrire | Disclaimer

   EN    FR    IT 

 










Légende :    VFR   VFR Marginal   IFR   IFR Intensif   IFR Très Intensif
Visi : 
Plafond : 
>= 8 km
>= 3000ft
5 à 8 km
1000 à 3000 ft
1500m à 5 km
500 à 1000 ft
800 à 1500m
200 à 500 ft
< 800m
< 200 ft
Symboles :   Orages  Brouillard  Fortes neiges  Fortes précipitations  Vent > 20 kt
SIGMETs :   Divers  Orages  Givrage  Turbulence  Onde Orograph.  Cendres Volcan.






- Altitude de l'aérodrome : 137 ft
- Code IATA : ARN


ESSA - Stockholm-Arlanda

DERNIER METAR :
  • 270120Z 01010KT 3600 BR OVC003 12/12 Q1011 NOSIG

METARs EXPIRÉS :
  • 270050Z 02010KT 9999 BKN003 12/12 Q1011 NOSIG
  • 270020Z 01008KT 9999 BKN005 12/12 Q1011 TEMPO BKN004
  • 262350Z 02009KT CAVOK 12/12 Q1011 NOSIG
  • 262320Z 02010KT CAVOK 12/12 Q1011 NOSIG
  • 262250Z 02009KT CAVOK 13/12 Q1010 NOSIG

TAF TAF ESSA
Valide du 27 à 00h jusqu'au 28 à 00h UTC


262330Z 2700/2724 03008KT 9999 FEW006
PROB40 2700/2707 2500 BR BKN004



MET'MAP, la Météo Aéronautique d'un coup d'oeil ! - Copyright ORBIFLY Décembre 2007 - Disclaimer

ORBIFLY MET'MAP TEAM :

Programmation & Développement : Alexandra Zaïnal
Sur une idée originale de : Baudouin d'Aumeries
Assistance à la programmation : Marc-Olivier Méhu
Soutien technique & logistique : Manuel Goepfert

Contact : metmap@orbifly.com




SOURCES & CREDITS :

   NOAA